Startpagina
METAR-TAF:

METAR-TAF

Vliegvelden :

Aeroporto da Madeira

Funchal, Madeira, Portugal

breedte: 32-41-52N, lengte: 016-46-28W, hoogte: 59 m

Actueel weer

Dit bericht is 10 minuten geleden gemaakt, om 21:00 UTC
Wind 13 kt uit het noorden, variërend tussen het noordwesten en het noorden
Temperatuur 17°C
Vochtigheid 63%
Druk 1016 hPa
Zicht 10 km of meer
Weinig wolken op 1600 ft
Verspreide wolken op 3000 ft

METAR: LPMA 222100Z 35013KT 310V010 9999 FEW016 SCT030 17/10 Q1016

Tijdstip: 22:10 (21:10 UTC)

Verwachting

Dit bericht is 4 uur en het 10 minuten geleden gemaakt, om 17:00 UTC
Verwachting geldig van 22 om 18 UTC tot 23 om 18 UTC
Wind 12 kt uit het noorden
Zicht 10 km of meer
Verspreide wolken op 1500 ft
Verspreide wolken op 3000 ft
Tijdelijke
van 22 om 18 UTC tot 23 om 03 UTC
Wind 5 kt uit variabele richting
Wijzigt naar
van 23 om 03 UTC tot 23 om 06 UTC
Wind 5 kt uit variabele richting

TAF: LPMA 221700Z 2218/2318 35012KT 9999 SCT015 SCT030 TEMPO 2218/2303 VRB05KT BECMG 2303/2306 VRB05KT

Waarnemingen en weersverwachtingen van meer dan 4000 vliegvelden (METAR en TAF).

De beschikbare stations zijn de gele en rode punten op de kaart.

Ga met uw muis naar het station om de naam te zien.

Klik dan om waarnemingen en weersverwachtingen te zien.

kaart wijzigen: klik op de groene knoppen met een zwart kruis om in te zoomen, op de groene knop met een streepje om uit te zoomen of op de groene pijlen voor aangrenzende kaarten.


METAR-TAF: